createdAt,value
2019-03-11T00:00:54.179Z,99232.39
2019-03-11T00:03:20.844Z,99237.78
2019-03-11T00:05:47.362Z,99238.71
2019-03-11T00:08:13.730Z,99241.66
2019-03-11T00:10:40.045Z,99257.47
2019-03-11T00:13:07.261Z,99253.52
2019-03-11T00:15:33.950Z,99253.56
2019-03-11T00:18:00.677Z,99259.75
2019-03-11T00:20:26.975Z,99257.47
2019-03-11T00:22:53.296Z,99257.48
2019-03-11T00:25:19.966Z,99258.66
2019-03-11T00:27:46.274Z,99257.09
2019-03-11T00:30:12.953Z,99273.70
2019-03-11T00:32:39.568Z,99275.16
2019-03-11T00:35:06.951Z,99280.28
2019-03-11T00:37:33.243Z,99279.20
2019-03-11T00:39:59.902Z,99288.08
2019-03-11T00:42:26.555Z,99284.55
2019-03-11T00:44:52.865Z,99288.36
2019-03-11T00:47:19.513Z,99287.77
2019-03-11T00:49:45.817Z,99290.37
2019-03-11T00:52:12.152Z,99289.98
2019-03-11T00:54:38.802Z,99285.42
2019-03-11T00:57:05.433Z,99296.58
2019-03-11T00:59:32.083Z,99292.30
2019-03-11T01:01:58.485Z,99291.19
2019-03-11T01:04:24.851Z,99313.00
2019-03-11T01:06:51.179Z,99299.30
2019-03-11T01:09:17.919Z,99295.28
2019-03-11T01:11:44.258Z,99312.94
2019-03-11T01:14:10.550Z,99312.97
2019-03-11T01:16:36.889Z,99309.45
2019-03-11T01:19:03.184Z,99306.25
2019-03-11T01:21:30.900Z,99307.92
2019-03-11T01:23:57.537Z,99310.07
2019-03-11T01:26:23.856Z,99301.08
2019-03-11T01:28:50.516Z,99292.80
2019-03-11T01:31:17.142Z,99301.50
2019-03-11T01:33:44.472Z,99299.75
2019-03-11T01:36:11.137Z,99299.17
2019-03-11T01:38:37.797Z,99292.47
2019-03-11T01:41:04.120Z,99293.53
2019-03-11T01:43:30.438Z,99298.30
2019-03-11T01:45:56.766Z,99299.74
2019-03-11T01:48:23.058Z,99296.39
2019-03-11T01:50:49.800Z,99284.77
2019-03-11T01:53:16.165Z,99278.02
2019-03-11T01:55:42.499Z,99277.07
2019-03-11T01:58:08.821Z,99295.70
2019-03-11T02:00:35.125Z,99293.72
2019-03-11T02:03:01.452Z,99283.42
2019-03-11T02:05:28.032Z,99288.08
2019-03-11T02:07:54.372Z,99292.23
2019-03-11T02:10:20.655Z,99296.77
2019-03-11T02:12:47.351Z,99293.09
2019-03-11T02:15:15.960Z,99280.58
2019-03-11T02:17:42.286Z,99285.57
2019-03-11T02:20:12.810Z,99280.84
2019-03-11T02:22:39.431Z,99276.58
2019-03-11T02:25:06.281Z,99285.27
2019-03-11T02:27:32.585Z,99301.52
2019-03-11T02:29:58.903Z,99283.64
2019-03-11T02:32:28.575Z,99280.67
2019-03-11T02:34:53.463Z,99294.41
2019-03-11T02:37:20.071Z,99284.11
2019-03-11T02:39:46.708Z,99289.94
2019-03-11T02:42:13.022Z,99290.42
2019-03-11T02:44:39.331Z,99294.36
2019-03-11T02:47:05.930Z,99295.69
2019-03-11T02:49:32.223Z,99288.23
2019-03-11T02:51:58.553Z,99279.52
2019-03-11T02:54:25.239Z,99278.30
2019-03-11T02:56:51.568Z,99298.14
2019-03-11T02:59:18.192Z,99298.53
2019-03-11T03:01:50.526Z,99284.55
2019-03-11T03:04:18.726Z,99303.33
2019-03-11T03:06:45.020Z,99313.69
2019-03-11T03:09:12.642Z,99313.34
2019-03-11T03:11:39.258Z,99312.52
2019-03-11T03:14:05.576Z,99312.06
2019-03-11T03:16:31.870Z,99309.47
2019-03-11T03:18:58.188Z,99314.87
2019-03-11T03:21:24.505Z,99321.00
2019-03-11T03:23:51.117Z,99306.09
2019-03-11T03:26:17.450Z,99314.05
2019-03-11T03:28:43.734Z,99308.28
2019-03-11T03:31:10.073Z,99313.34
2019-03-11T03:33:36.661Z,99312.47
2019-03-11T03:36:03.314Z,99308.05
2019-03-11T03:38:31.350Z,99317.91
2019-03-11T03:40:58.155Z,99308.53
2019-03-11T03:43:25.703Z,99305.77
2019-03-11T03:45:52.221Z,99296.41
2019-03-11T03:48:18.623Z,99312.72
2019-03-11T03:50:45.098Z,99304.86
2019-03-11T03:53:11.571Z,99306.31
2019-03-11T03:55:37.859Z,99309.34
2019-03-11T03:58:04.277Z,99287.38
2019-03-11T04:00:31.837Z,99323.98
2019-03-11T04:02:58.509Z,99315.94
2019-03-11T04:05:24.866Z,99327.58
2019-03-11T04:07:51.269Z,99321.83
2019-03-11T04:10:18.911Z,99322.20
2019-03-11T04:12:45.533Z,99330.44
2019-03-11T04:15:12.611Z,99331.52
2019-03-11T04:17:39.271Z,99328.53
2019-03-11T04:20:15.671Z,99330.82
2019-03-11T04:22:41.982Z,99326.88
2019-03-11T04:25:08.929Z,99331.17
2019-03-11T04:27:35.601Z,99324.66
2019-03-11T04:30:09.390Z,99331.44
2019-03-11T04:32:35.704Z,99333.27
2019-03-11T04:35:04.218Z,99319.70
2019-03-11T04:37:30.892Z,99333.95
2019-03-11T04:39:57.503Z,99334.19
2019-03-11T04:42:23.859Z,99338.00
2019-03-11T04:44:50.164Z,99341.88
2019-03-11T04:47:16.519Z,99334.49
2019-03-11T04:49:43.126Z,99338.90
2019-03-11T04:52:09.769Z,99334.17
2019-03-11T04:54:36.407Z,99325.83
2019-03-11T04:57:02.737Z,99329.00
2019-03-11T04:59:29.058Z,99328.20
2019-03-11T05:01:55.375Z,99316.38
2019-03-11T05:04:21.711Z,99315.05
2019-03-11T05:06:48.108Z,99313.91
2019-03-11T05:09:14.893Z,99310.97
2019-03-11T05:11:41.210Z,99317.18
2019-03-11T05:14:08.552Z,99306.89
2019-03-11T05:16:34.867Z,99312.38
2019-03-11T05:19:01.203Z,99313.21
2019-03-11T05:21:27.531Z,99318.23
2019-03-11T05:23:53.851Z,99312.36
2019-03-11T05:26:20.199Z,99309.28
2019-03-11T05:28:49.195Z,99314.28
2019-03-11T05:31:15.490Z,99309.75
2019-03-11T05:33:42.108Z,99305.34
2019-03-11T05:36:08.428Z,99307.81
2019-03-11T05:38:35.502Z,99293.77
2019-03-11T05:41:01.814Z,99302.19
2019-03-11T05:43:28.184Z,99301.80
2019-03-11T05:45:54.807Z,99280.22
2019-03-11T05:48:21.153Z,99284.65
2019-03-11T05:50:47.468Z,99285.31
2019-03-11T05:53:14.103Z,99279.20
2019-03-11T05:55:40.447Z,99268.66
2019-03-11T05:58:07.039Z,99258.47
2019-03-11T06:00:33.846Z,99253.45
2019-03-11T06:03:00.173Z,99250.78
2019-03-11T06:05:26.933Z,99260.78
2019-03-11T06:07:53.629Z,99266.16
2019-03-11T06:10:19.965Z,99255.89
2019-03-11T06:12:46.319Z,99262.44
2019-03-11T06:15:14.379Z,99265.23
2019-03-11T06:17:41.213Z,99260.13
2019-03-11T06:20:34.033Z,99256.31
2019-03-11T06:23:02.412Z,99260.76
2019-03-11T06:25:28.843Z,99259.00
2019-03-11T06:27:55.135Z,99255.56
2019-03-11T06:30:21.838Z,99257.61
2019-03-11T06:32:48.249Z,99267.41
2019-03-11T06:35:14.903Z,99261.96
2019-03-11T06:37:41.542Z,99259.69
2019-03-11T06:40:10.106Z,99260.45
2019-03-11T06:42:36.428Z,99249.83
2019-03-11T06:45:06.436Z,99262.89
2019-03-11T06:47:32.745Z,99254.00
2019-03-11T06:49:59.130Z,99250.27
2019-03-11T06:52:25.462Z,99257.12
2019-03-11T06:54:52.113Z,99251.52
2019-03-11T06:57:18.446Z,99258.05
2019-03-11T06:59:44.774Z,99252.13
2019-03-11T07:02:11.326Z,99253.66
2019-03-11T07:04:37.961Z,99260.75
2019-03-11T07:07:04.265Z,99253.61
2019-03-11T07:09:31.027Z,99251.40
2019-03-11T07:11:57.332Z,99257.04
2019-03-11T07:14:23.644Z,99260.29
2019-03-11T07:16:50.340Z,99257.47
2019-03-11T07:19:16.946Z,99267.63
2019-03-11T07:21:43.303Z,99273.50
2019-03-11T07:24:09.611Z,99258.67
2019-03-11T07:26:35.958Z,99270.18
2019-03-11T07:29:02.278Z,99280.19
2019-03-11T07:31:28.649Z,99278.32
2019-03-11T07:33:55.284Z,99272.66
2019-03-11T07:36:21.611Z,99284.66
2019-03-11T07:38:47.942Z,99287.17
2019-03-11T07:41:14.667Z,99292.88
2019-03-11T07:43:41.276Z,99287.25
2019-03-11T07:46:07.584Z,99293.97
2019-03-11T07:48:33.905Z,99278.98
2019-03-11T07:51:00.236Z,99286.34
2019-03-11T07:53:26.578Z,99295.72
2019-03-11T07:55:53.264Z,99283.67
2019-03-11T07:58:19.587Z,99287.47
2019-03-11T08:00:53.901Z,99287.47
2019-03-11T08:03:15.270Z,99286.47
2019-03-11T08:05:41.655Z,99291.09
2019-03-11T08:08:07.985Z,99292.03
2019-03-11T08:10:34.363Z,99291.92
2019-03-11T08:13:01.679Z,99274.58
2019-03-11T08:15:28.020Z,99293.39
2019-03-11T08:17:54.427Z,99299.23
2019-03-11T08:20:27.043Z,99290.08
2019-03-11T08:22:53.529Z,99306.91
2019-03-11T08:25:19.832Z,99308.76
2019-03-11T08:27:46.288Z,99305.01
2019-03-11T08:30:20.630Z,99303.97
2019-03-11T08:32:47.485Z,99301.25
2019-03-11T08:35:14.284Z,99318.96
2019-03-11T08:37:40.677Z,99316.00
2019-03-11T08:40:15.058Z,99307.57
2019-03-11T08:42:41.710Z,99297.38
2019-03-11T08:45:11.134Z,99332.52
2019-03-11T08:47:38.768Z,99330.11
2019-03-11T08:50:12.019Z,99339.58
2019-03-11T08:52:38.357Z,99330.58
2019-03-11T08:55:05.654Z,99323.52
2019-03-11T08:57:31.969Z,99335.70
2019-03-11T08:59:58.282Z,99335.36
2019-03-11T09:02:25.717Z,99352.62
2019-03-11T09:04:52.054Z,99334.19
2019-03-11T09:07:18.511Z,99322.31
2019-03-11T09:09:44.889Z,99323.14
2019-03-11T09:12:11.272Z,99321.88
2019-03-11T09:14:37.675Z,99329.29
2019-03-11T09:17:04.135Z,99325.77
2019-03-11T09:19:30.778Z,99329.89
2019-03-11T09:21:57.557Z,99321.80
2019-03-11T09:24:24.198Z,99321.38
2019-03-11T09:26:50.546Z,99330.98
2019-03-11T09:29:17.020Z,99323.39
2019-03-11T09:31:43.436Z,99317.95
2019-03-11T09:34:09.759Z,99327.01
2019-03-11T09:36:36.184Z,99332.11
2019-03-11T09:39:07.769Z,99322.83
2019-03-11T09:41:34.894Z,99332.34
2019-03-11T09:44:01.336Z,99306.94
2019-03-11T09:46:27.871Z,99315.50
2019-03-11T09:48:54.303Z,99314.80
2019-03-11T09:51:21.663Z,99313.95
2019-03-11T09:53:48.367Z,99319.76
2019-03-11T09:56:15.022Z,99322.79
2019-03-11T09:58:41.637Z,99310.60
2019-03-11T10:01:08.270Z,99327.37
2019-03-11T10:03:34.626Z,99314.97
2019-03-11T10:06:01.248Z,99329.17
2019-03-11T10:08:27.881Z,99308.64
2019-03-11T10:10:54.273Z,99315.56
2019-03-11T10:13:20.950Z,99311.14
2019-03-11T10:15:47.301Z,99322.73
2019-03-11T10:18:13.671Z,99319.55
2019-03-11T10:20:40.105Z,99320.07
2019-03-11T10:23:06.638Z,99331.59
2019-03-11T10:25:33.314Z,99327.38
2019-03-11T10:27:59.681Z,99334.81
2019-03-11T10:30:25.973Z,99338.13
2019-03-11T10:32:52.327Z,99334.81
2019-03-11T10:35:31.367Z,99333.42
2019-03-11T10:37:48.543Z,99341.11
2019-03-11T10:40:21.526Z,99338.93
2019-03-11T10:42:47.999Z,99338.32
2019-03-11T10:45:15.796Z,99344.13
2019-03-11T10:47:42.203Z,99348.80
2019-03-11T10:50:14.326Z,99342.06
2019-03-11T10:52:41.220Z,99346.44
2019-03-11T10:55:11.642Z,99334.39
2019-03-11T10:57:37.979Z,99342.80
2019-03-11T11:00:15.498Z,99358.52
2019-03-11T11:02:41.844Z,99352.13
2019-03-11T11:05:09.035Z,99355.75
2019-03-11T11:07:35.681Z,99356.34
2019-03-11T11:10:07.347Z,99355.38
2019-03-11T11:12:33.696Z,99342.16
2019-03-11T11:15:00.058Z,99330.53
2019-03-11T11:17:26.629Z,99308.83
2019-03-11T11:20:02.736Z,99324.98
2019-03-11T11:22:21.174Z,99318.69
2019-03-11T11:24:47.502Z,99348.89
2019-03-11T11:27:13.833Z,99338.55
2019-03-11T11:29:40.161Z,99354.56
2019-03-11T11:32:06.888Z,99352.13
2019-03-11T11:34:33.507Z,99334.59
2019-03-11T11:37:00.137Z,99338.90
2019-03-11T11:39:26.822Z,99326.31
2019-03-11T11:41:53.702Z,99339.81
2019-03-11T11:44:20.414Z,99346.60
2019-03-11T11:46:47.017Z,99323.58
2019-03-11T11:49:13.658Z,99325.13
2019-03-11T11:51:39.964Z,99310.73
2019-03-11T11:54:06.453Z,99314.50
2019-03-11T11:56:32.822Z,99321.20
2019-03-11T11:58:59.159Z,99298.63
2019-03-11T12:01:25.828Z,99302.74
2019-03-11T12:03:52.189Z,99320.59
2019-03-11T12:06:18.524Z,99307.87
2019-03-11T12:08:45.230Z,99308.95
2019-03-11T12:11:12.127Z,99312.61
2019-03-11T12:13:38.828Z,99320.56
2019-03-11T12:16:05.232Z,99312.83
2019-03-11T12:18:31.868Z,99316.34
2019-03-11T12:20:58.285Z,99334.88
2019-03-11T12:23:24.980Z,99339.22
2019-03-11T12:25:51.584Z,99334.75
2019-03-11T12:28:18.330Z,99352.77
2019-03-11T12:30:44.638Z,99383.30
2019-03-11T12:33:10.985Z,99350.46
2019-03-11T12:35:37.737Z,99357.38
2019-03-11T12:38:10.526Z,99350.47
2019-03-11T12:40:37.836Z,99361.78
2019-03-11T12:43:06.661Z,99354.43
2019-03-11T12:45:33.291Z,99342.33
2019-03-11T12:47:59.619Z,99343.38
2019-03-11T12:50:28.118Z,99333.95
2019-03-11T12:52:54.919Z,99359.36
2019-03-11T12:55:21.942Z,99359.16
2019-03-11T12:57:49.079Z,99349.30
2019-03-11T13:00:22.142Z,99343.91
2019-03-11T13:02:51.697Z,99342.66
2019-03-11T13:05:18.385Z,99343.41
2019-03-11T13:07:44.957Z,99345.05
2019-03-11T13:10:21.770Z,99368.88
2019-03-11T13:12:48.376Z,99370.66
2019-03-11T13:15:15.408Z,99361.37
2019-03-11T13:17:41.725Z,99352.92
2019-03-11T13:20:13.621Z,99361.11
2019-03-11T13:22:39.933Z,99373.11
2019-03-11T13:25:07.503Z,99374.63
2019-03-11T13:27:35.008Z,99357.64
2019-03-11T13:30:01.680Z,99355.84
2019-03-11T13:32:28.322Z,99362.16
2019-03-11T13:34:54.672Z,99366.00
2019-03-11T13:37:21.091Z,99368.86
2019-03-11T13:39:47.689Z,99384.31
2019-03-11T13:42:17.227Z,99400.66
2019-03-11T13:44:43.856Z,99406.66
2019-03-11T13:47:10.577Z,99411.97
2019-03-11T13:49:37.230Z,99411.30
2019-03-11T13:52:03.554Z,99408.59
2019-03-11T13:54:30.206Z,99416.24
2019-03-11T13:56:56.514Z,99414.25
2019-03-11T13:59:22.835Z,99434.88
2019-03-11T14:01:49.489Z,99435.31
2019-03-11T14:04:15.821Z,99412.23
2019-03-11T14:06:42.468Z,99421.05
2019-03-11T14:09:09.118Z,99414.33
2019-03-11T14:11:37.516Z,99406.89
2019-03-11T14:14:03.798Z,99424.52
2019-03-11T14:16:30.469Z,99418.56
2019-03-11T14:18:56.805Z,99421.52
2019-03-11T14:21:26.088Z,99408.70
2019-03-11T14:23:51.702Z,99400.18
2019-03-11T14:26:18.025Z,99406.83
2019-03-11T14:28:44.343Z,99409.14
2019-03-11T14:31:10.672Z,99414.55
2019-03-11T14:33:36.973Z,99403.98
2019-03-11T14:36:03.733Z,99411.64
2019-03-11T14:38:30.080Z,99442.22
2019-03-11T14:40:56.414Z,99462.95
2019-03-11T14:43:22.729Z,99459.44
2019-03-11T14:45:49.069Z,99465.37
2019-03-11T14:48:15.392Z,99454.39
2019-03-11T14:50:42.054Z,99451.95
2019-03-11T14:53:08.365Z,99466.61
2019-03-11T14:55:35.031Z,99456.21
2019-03-11T14:58:01.380Z,99451.85
2019-03-11T15:00:28.932Z,99471.27
2019-03-11T15:02:55.236Z,99461.33
2019-03-11T15:05:21.561Z,99461.11
2019-03-11T15:07:47.902Z,99480.45
2019-03-11T15:10:19.039Z,99463.93
2019-03-11T15:12:45.869Z,99464.39
2019-03-11T15:15:18.057Z,99467.53
2019-03-11T15:17:44.387Z,99470.06
2019-03-11T15:20:12.430Z,99514.35
2019-03-11T15:22:38.842Z,99464.30
2019-03-11T15:25:08.939Z,99469.88
2019-03-11T15:27:35.272Z,99479.70
2019-03-11T15:30:04.403Z,99481.00
2019-03-11T15:32:30.864Z,99504.30
2019-03-11T15:34:57.556Z,99483.80
2019-03-11T15:37:23.902Z,99483.22
2019-03-11T15:39:50.361Z,99484.64
2019-03-11T15:42:16.693Z,99495.55
2019-03-11T15:44:43.008Z,99499.27
2019-03-11T15:47:09.360Z,99498.99
2019-03-11T15:49:35.723Z,99493.14
2019-03-11T15:52:02.360Z,99504.30
2019-03-11T15:54:29.007Z,99505.79
2019-03-11T15:56:55.319Z,99505.13
2019-03-11T15:59:21.682Z,99501.48
2019-03-11T16:01:48.462Z,99517.92
2019-03-11T16:04:14.794Z,99519.48
2019-03-11T16:06:41.228Z,99514.31
2019-03-11T16:09:10.339Z,99508.88
2019-03-11T16:11:38.201Z,99517.11
2019-03-11T16:14:04.517Z,99523.13
2019-03-11T16:16:32.534Z,99522.69
2019-03-11T16:18:59.794Z,99529.65
2019-03-11T16:21:26.159Z,99527.97
2019-03-11T16:23:52.760Z,99536.31
2019-03-11T16:26:19.405Z,99534.85
2019-03-11T16:28:48.303Z,99535.23
2019-03-11T16:31:14.579Z,99551.47
2019-03-11T16:33:41.179Z,99552.88
2019-03-11T16:36:07.802Z,99539.77
2019-03-11T16:38:34.548Z,99572.56
2019-03-11T16:41:01.159Z,99548.31
2019-03-11T16:43:27.512Z,99554.55
2019-03-11T16:45:54.135Z,99551.20
2019-03-11T16:48:20.471Z,99558.16
2019-03-11T16:50:47.142Z,99559.56
2019-03-11T16:53:13.470Z,99540.34
2019-03-11T16:55:41.974Z,99555.45
2019-03-11T16:58:08.298Z,99562.52
2019-03-11T17:00:36.800Z,99569.56
2019-03-11T17:03:03.820Z,99571.62
2019-03-11T17:05:30.639Z,99570.23
2019-03-11T17:07:57.184Z,99581.08
2019-03-11T17:10:24.187Z,99587.77
2019-03-11T17:12:50.939Z,99590.59
2019-03-11T17:15:17.237Z,99596.80
2019-03-11T17:17:43.791Z,99591.33
2019-03-11T17:20:14.181Z,99601.46
2019-03-11T17:22:40.501Z,99610.17
2019-03-11T17:25:10.827Z,99608.22
2019-03-11T17:27:37.664Z,99610.09
2019-03-11T17:30:17.512Z,99613.05
2019-03-11T17:32:44.145Z,99606.84
2019-03-11T17:35:10.583Z,99628.78
2019-03-11T17:37:37.313Z,99618.44
2019-03-11T17:40:11.123Z,99626.48
2019-03-11T17:42:37.771Z,99626.52
2019-03-11T17:45:12.952Z,99625.55
2019-03-11T17:47:39.635Z,99625.71
2019-03-11T17:50:10.921Z,99617.84
2019-03-11T17:52:37.389Z,99631.91
2019-03-11T17:55:07.784Z,99636.70
2019-03-11T17:57:35.917Z,99647.47
2019-03-11T18:00:15.378Z,99645.31
2019-03-11T18:02:42.192Z,99649.59
2019-03-11T18:05:09.051Z,99649.40
2019-03-11T18:07:35.483Z,99650.91
2019-03-11T18:10:06.388Z,99658.84
2019-03-11T18:12:32.797Z,99649.72
2019-03-11T18:14:59.155Z,99662.20
2019-03-11T18:17:25.459Z,99652.45
2019-03-11T18:19:52.165Z,99643.02
2019-03-11T18:22:18.777Z,99648.65
2019-03-11T18:24:45.472Z,99655.80
2019-03-11T18:27:12.157Z,99663.91
2019-03-11T18:29:38.625Z,99667.13
2019-03-11T18:32:05.254Z,99673.84
2019-03-11T18:34:31.578Z,99686.53
2019-03-11T18:36:59.055Z,99675.83
2019-03-11T18:39:25.461Z,99688.08
2019-03-11T18:41:52.333Z,99685.88
2019-03-11T18:44:19.085Z,99702.55
2019-03-11T18:46:45.522Z,99700.48
2019-03-11T18:49:11.954Z,99687.33
2019-03-11T18:51:38.660Z,99688.38
2019-03-11T18:54:05.021Z,99689.16
2019-03-11T18:56:31.428Z,99688.99
2019-03-11T18:58:58.048Z,99686.18
2019-03-11T19:01:24.352Z,99681.22
2019-03-11T19:03:51.092Z,99673.06
2019-03-11T19:06:17.491Z,99681.06
2019-03-11T19:08:44.283Z,99682.38
2019-03-11T19:11:10.608Z,99685.02
2019-03-11T19:13:37.338Z,99695.19
2019-03-11T19:16:03.871Z,99693.73
2019-03-11T19:18:30.375Z,99680.14
2019-03-11T19:20:56.774Z,99669.41
2019-03-11T19:23:23.451Z,99697.06
2019-03-11T19:25:50.074Z,99687.38
2019-03-11T19:28:16.466Z,99699.58
2019-03-11T19:30:43.259Z,99689.88
2019-03-11T19:33:11.184Z,99695.61
2019-03-11T19:35:37.739Z,99698.91
2019-03-11T19:38:04.144Z,99693.58
2019-03-11T19:40:30.494Z,99699.88
2019-03-11T19:42:56.944Z,99701.11
2019-03-11T19:45:23.442Z,99708.90
2019-03-11T19:47:50.229Z,99707.84
2019-03-11T19:50:18.228Z,99701.81
2019-03-11T19:52:57.330Z,99694.64
2019-03-11T19:55:13.653Z,99699.75
2019-03-11T19:57:40.076Z,99691.20
2019-03-11T20:00:17.127Z,99692.66
2019-03-11T20:02:44.059Z,99689.46
2019-03-11T20:05:14.160Z,99687.91
2019-03-11T20:07:40.612Z,99692.81
2019-03-11T20:10:10.259Z,99693.09
2019-03-11T20:12:36.829Z,99693.72
2019-03-11T20:15:10.110Z,99695.78
2019-03-11T20:17:36.562Z,99693.88
2019-03-11T20:20:08.453Z,99696.77
2019-03-11T20:22:35.276Z,99695.91
2019-03-11T20:25:02.853Z,99698.98
2019-03-11T20:27:30.772Z,99699.66
2019-03-11T20:29:57.916Z,99715.97
2019-03-11T20:32:24.219Z,99718.34
2019-03-11T20:34:50.575Z,99715.59
2019-03-11T20:37:18.036Z,99708.97
2019-03-11T20:39:45.959Z,99721.08
2019-03-11T20:42:12.453Z,99730.39
2019-03-11T20:44:39.184Z,99726.05
2019-03-11T20:47:07.068Z,99728.86
2019-03-11T20:49:33.470Z,99734.44
2019-03-11T20:51:59.987Z,99730.92
2019-03-11T20:54:26.748Z,99752.09
2019-03-11T20:56:53.478Z,99757.75
2019-03-11T20:59:19.936Z,99761.06
2019-03-11T21:01:46.335Z,99771.59
2019-03-11T21:04:13.165Z,99778.30
2019-03-11T21:06:39.617Z,99786.77
2019-03-11T21:09:07.468Z,99797.94
2019-03-11T21:11:36.492Z,99797.56
2019-03-11T21:14:14.586Z,99791.16
2019-03-11T21:16:43.573Z,99807.72
2019-03-11T21:19:14.135Z,99803.73
2019-03-11T21:21:41.811Z,99817.85
2019-03-11T21:24:08.395Z,99811.30
2019-03-11T21:26:35.101Z,99823.74
2019-03-11T21:29:02.333Z,99821.52
2019-03-11T21:31:29.261Z,99827.76
2019-03-11T21:35:25.323Z,99830.77
2019-03-11T21:36:24.244Z,99828.48
2019-03-11T21:38:51.026Z,99822.45
2019-03-11T21:41:17.741Z,99832.42
2019-03-11T21:43:44.259Z,99836.63
2019-03-11T21:46:10.620Z,99833.03
2019-03-11T21:48:37.057Z,99831.73
2019-03-11T21:51:03.439Z,99838.47
2019-03-11T21:53:30.318Z,99841.05
2019-03-11T21:55:56.847Z,99854.88
2019-03-11T21:58:24.596Z,99838.98
2019-03-11T22:00:51.187Z,99851.19
2019-03-11T22:03:17.509Z,99871.00
2019-03-11T22:05:44.114Z,99861.41
2019-03-11T22:08:10.898Z,99868.67
2019-03-11T22:10:37.284Z,99866.53
2019-03-11T22:13:03.636Z,99876.17
2019-03-11T22:15:30.264Z,99881.73
2019-03-11T22:17:56.607Z,99887.50
2019-03-11T22:20:23.112Z,99888.78
2019-03-11T22:22:49.496Z,99898.22
2019-03-11T22:25:19.297Z,99900.69
2019-03-11T22:27:45.938Z,99903.98
2019-03-11T22:30:23.450Z,99920.61
2019-03-11T22:32:49.876Z,99931.08
2019-03-11T22:35:17.518Z,99945.36
2019-03-11T22:37:44.337Z,99948.67
2019-03-11T22:40:13.262Z,99959.89
2019-03-11T22:42:39.603Z,99963.83
2019-03-11T22:45:12.036Z,99973.61
2019-03-11T22:47:39.476Z,99988.59
2019-03-11T22:50:08.893Z,99992.27
2019-03-11T22:52:35.557Z,99999.34
2019-03-11T22:55:04.469Z,99988.28
2019-03-11T22:57:30.786Z,99992.63
2019-03-11T22:59:59.014Z,99992.06
2019-03-11T23:02:25.424Z,99986.14
2019-03-11T23:04:52.190Z,100006.04
2019-03-11T23:07:18.548Z,99997.80
2019-03-11T23:09:44.885Z,99992.97
2019-03-11T23:12:11.187Z,99995.89
2019-03-11T23:14:38.556Z,100000.50
2019-03-11T23:17:06.242Z,100004.44
2019-03-11T23:19:32.608Z,100017.53
2019-03-11T23:21:59.218Z,100033.50
2019-03-11T23:24:25.542Z,100032.02
2019-03-11T23:26:51.906Z,100035.07
2019-03-11T23:29:18.735Z,100031.47
2019-03-11T23:31:45.159Z,100043.20
2019-03-11T23:34:11.474Z,100042.29
2019-03-11T23:36:38.925Z,100046.01
2019-03-11T23:39:05.980Z,100057.17
2019-03-11T23:41:34.578Z,100055.78
2019-03-11T23:44:01.195Z,100069.24
2019-03-11T23:46:27.537Z,100068.27
2019-03-11T23:48:53.874Z,100072.94
2019-03-11T23:51:20.220Z,100032.24
2019-03-11T23:53:46.866Z,100080.83
2019-03-11T23:56:13.567Z,100083.61
2019-03-11T23:58:39.890Z,100090.62
